Darstellungsparameter: Aktuell verwendete Einstellungen:
Skalierung der Graphiken ... ?
xyx+y,   Skalierungsfaktor:      Skalierung: Modus: x, Faktor: 1
Darstellungszeitraum ... ?
Vom - - bis: - -   Zeitraum: 07.09.2018 - 07.09.2018
Min/Max/Avg-Anzeige ... ?
Zeige MMA aktuell
Zeige MMA Monat
Zeige MMA alles
Zeige --A aktuell
Zeige --A Monat
Zeige --A alles
Keine MMA-Anzeige
MMA:
Keine MMA-Graphiken
MMA-Basis: 07.09.2018 - 07.09.2018
Quicknavigation für Darstellung... ?
Tage:      1T, 2T, 3T, 5T -1T -2T -3T -5T +1T +2T +3T +5T
Wochen: 1W, 2W, 3W -1W -2W -3W +1W +2W +3W
Monate: 1M, 3M, 6M -1M -3M -6M +1M +3M +6M
Jahre:    1J, 3J, 5J, 10J -1J -3J -5J -10J +1J +3J +5J +10J
Nutze für die Darstellung ... ?
Originaldaten oder Mittelwerte auf ...
Stundenbasis Tagesbasis Wochenbasis
Monatsbasis Jahresbasis      Datenbasis: Original-Daten
Darstellen als:
Statistik (Auto) Statistik J:M      Darstellung:
Zur Graphik,    zurück zur Übersicht aller Sensoren.
 
Tabellarische Datenbersicht: ?
 
Sensor: Nr:Datum:Temp:Feuchte:Taupunkt:
Aussen-T/F 1 07-09-2018 00:00:00 16.3 C 95 % 15.5 C
2 07-09-2018 00:05:00 16.3 C 95 % 15.5 C
3 07-09-2018 00:10:00 16.3 C 95 % 15.5 C
4 07-09-2018 00:15:00 16.2 C 95 % 15.4 C
5 07-09-2018 00:20:00 16.2 C 95 % 15.4 C
6 07-09-2018 00:25:00 16.2 C 95 % 15.4 C
7 07-09-2018 00:30:00 16.2 C 95 % 15.4 C
8 07-09-2018 00:35:00 16.1 C 95 % 15.3 C
9 07-09-2018 00:40:00 16.1 C 95 % 15.3 C
10 07-09-2018 00:45:00 16.1 C 95 % 15.3 C
11 07-09-2018 00:50:00 16.1 C 95 % 15.3 C
12 07-09-2018 00:55:00 16.2 C 95 % 15.4 C
13 07-09-2018 01:00:00 16.1 C 95 % 15.3 C
14 07-09-2018 01:05:00 16.1 C 95 % 15.3 C
15 07-09-2018 01:10:00 16.1 C 95 % 15.3 C
16 07-09-2018 01:15:00 16.1 C 95 % 15.3 C
17 07-09-2018 01:20:00 16.2 C 95 % 15.4 C
18 07-09-2018 01:25:00 16.2 C 95 % 15.4 C
19 07-09-2018 01:30:00 16.2 C 95 % 15.4 C
20 07-09-2018 01:35:00 16.1 C 95 % 15.3 C
21 07-09-2018 01:40:00 15.9 C 95 % 15.1 C
22 07-09-2018 01:45:00 15.8 C 95 % 15 C
23 07-09-2018 01:50:00 15.7 C 95 % 14.9 C
24 07-09-2018 01:55:00 15.6 C 95 % 14.8 C
25 07-09-2018 02:00:00 15.5 C 95 % 14.7 C
Sensor: Nr:Datum:Temp:Feuchte:Taupunkt:
Aussen-T/F 26 07-09-2018 02:05:00 15.4 C 95 % 14.6 C
27 07-09-2018 02:10:00 15.4 C 95 % 14.6 C
28 07-09-2018 02:15:00 15.4 C 95 % 14.6 C
29 07-09-2018 02:20:00 15.4 C 95 % 14.6 C
30 07-09-2018 02:25:00 15.4 C 95 % 14.6 C
31 07-09-2018 02:30:00 15.4 C 95 % 14.6 C
32 07-09-2018 02:35:00 15.4 C 95 % 14.6 C
33 07-09-2018 02:40:00 15.4 C 95 % 14.6 C
34 07-09-2018 02:45:00 15.4 C 95 % 14.6 C
35 07-09-2018 02:50:00 15.4 C 95 % 14.6 C
36 07-09-2018 02:55:00 15.4 C 95 % 14.6 C
37 07-09-2018 03:00:00 15.4 C 95 % 14.6 C
38 07-09-2018 03:05:00 15.4 C 95 % 14.6 C
39 07-09-2018 03:10:00 15.4 C 95 % 14.6 C
40 07-09-2018 03:15:00 15.4 C 95 % 14.6 C
41 07-09-2018 03:20:00 15.4 C 95 % 14.6 C
42 07-09-2018 03:25:00 15.4 C 95 % 14.6 C
43 07-09-2018 03:30:00 15.4 C 96 % 14.77 C
44 07-09-2018 03:35:00 15.4 C 96 % 14.77 C
45 07-09-2018 03:40:00 15.4 C 95 % 14.6 C
46 07-09-2018 03:45:00 15.4 C 95 % 14.6 C
47 07-09-2018 03:50:00 15.4 C 95 % 14.6 C
48 07-09-2018 03:55:00 15.3 C 95 % 14.5 C
49 07-09-2018 04:00:00 15.3 C 95 % 14.5 C
50 07-09-2018 04:05:00 15.3 C 95 % 14.5 C
Sensor: Nr:Datum:Temp:Feuchte:Taupunkt:
Aussen-T/F 51 07-09-2018 04:10:00 15.3 C 95 % 14.5 C
52 07-09-2018 04:15:00 15.3 C 95 % 14.5 C
53 07-09-2018 04:20:00 15.3 C 95 % 14.5 C
54 07-09-2018 04:25:00 15.2 C 95 % 14.4 C
55 07-09-2018 04:30:00 15.2 C 95 % 14.4 C
56 07-09-2018 04:35:00 15.2 C 95 % 14.4 C
57 07-09-2018 04:40:00 15.3 C 95 % 14.5 C
58 07-09-2018 04:45:00 15.3 C 95 % 14.5 C
59 07-09-2018 04:50:00 15.3 C 95 % 14.5 C
60 07-09-2018 04:55:00 15.3 C 95 % 14.5 C
61 07-09-2018 05:00:00 15.3 C 95 % 14.5 C
62 07-09-2018 05:05:00 15.3 C 95 % 14.5 C
63 07-09-2018 05:10:00 15.3 C 95 % 14.5 C
64 07-09-2018 05:15:00 15.3 C 95 % 14.5 C
65 07-09-2018 05:20:00 15.3 C 95 % 14.5 C
66 07-09-2018 05:25:00 15.3 C 95 % 14.5 C
67 07-09-2018 05:30:00 15.3 C 95 % 14.5 C
68 07-09-2018 05:35:00 15.3 C 95 % 14.5 C
69 07-09-2018 05:40:00 15.3 C 95 % 14.5 C
70 07-09-2018 05:45:00 15.3 C 95 % 14.5 C
71 07-09-2018 05:50:00 15.2 C 95 % 14.4 C
72 07-09-2018 05:55:00 14.9 C 95 % 14.11 C
73 07-09-2018 06:00:00 14.7 C 94 % 13.74 C
74 07-09-2018 06:05:00 14.6 C 94 % 13.65 C
75 07-09-2018 06:10:00 14.4 C 94 % 13.45 C
Sensor: Nr:Datum:Temp:Feuchte:Taupunkt:
Aussen-T/F 76 07-09-2018 06:15:00 14.3 C 95 % 13.51 C
77 07-09-2018 06:20:00 14.2 C 95 % 13.41 C
78 07-09-2018 06:25:00 14.1 C 94 % 13.15 C
79 07-09-2018 06:30:00 13.9 C 94 % 12.95 C
80 07-09-2018 06:35:00 13.8 C 94 % 12.85 C
81 07-09-2018 06:40:00 13.7 C 94 % 12.75 C
82 07-09-2018 06:45:00 13.7 C 95 % 12.91 C
83 07-09-2018 06:50:00 13.7 C 95 % 12.91 C
84 07-09-2018 06:55:00 13.7 C 95 % 12.91 C
85 07-09-2018 07:00:00 13.7 C 95 % 12.91 C
86 07-09-2018 07:05:00 13.7 C 95 % 12.91 C
87 07-09-2018 07:10:00 13.7 C 95 % 12.91 C
88 07-09-2018 07:15:00 13.7 C 95 % 12.91 C
89 07-09-2018 07:20:00 13.8 C 95 % 13.01 C
90 07-09-2018 07:25:00 13.8 C 95 % 13.01 C
91 07-09-2018 07:30:00 13.8 C 95 % 13.01 C
92 07-09-2018 07:35:00 13.9 C 95 % 13.11 C
93 07-09-2018 07:40:00 13.9 C 96 % 13.27 C
94 07-09-2018 07:45:00 14.1 C 96 % 13.47 C
95 07-09-2018 07:50:00 14.2 C 96 % 13.57 C
96 07-09-2018 07:55:00 14.2 C 96 % 13.57 C
97 07-09-2018 08:00:00 14.3 C 96 % 13.67 C
98 07-09-2018 08:05:00 14.4 C 96 % 13.77 C
99 07-09-2018 08:10:00 14.5 C 96 % 13.87 C
100 07-09-2018 08:15:00 14.6 C 96 % 13.97 C
Sensor: Nr:Datum:Temp:Feuchte:Taupunkt:
Aussen-T/F 101 07-09-2018 08:20:00 14.7 C 96 % 14.07 C
102 07-09-2018 08:25:00 14.8 C 96 % 14.17 C
103 07-09-2018 08:30:00 14.8 C 96 % 14.17 C
104 07-09-2018 08:35:00 14.8 C 96 % 14.17 C
105 07-09-2018 08:40:00 14.9 C 96 % 14.27 C
106 07-09-2018 08:45:00 14.9 C 96 % 14.27 C
107 07-09-2018 08:50:00 15 C 96 % 14.37 C
108 07-09-2018 08:55:00 15.1 C 96 % 14.47 C
109 07-09-2018 09:00:00 15.1 C 96 % 14.47 C
110 07-09-2018 09:05:00 15.1 C 96 % 14.47 C
111 07-09-2018 09:10:00 15.2 C 96 % 14.57 C
112 07-09-2018 09:15:00 15.2 C 96 % 14.57 C
113 07-09-2018 09:20:00 15.2 C 96 % 14.57 C
114 07-09-2018 09:25:00 15.3 C 96 % 14.67 C
115 07-09-2018 09:30:00 15.3 C 96 % 14.67 C
116 07-09-2018 09:35:00 15.5 C 96 % 14.86 C
117 07-09-2018 09:40:00 15.7 C 96 % 15.06 C
118 07-09-2018 09:45:00 15.8 C 96 % 15.16 C
119 07-09-2018 09:50:00 16 C 96 % 15.36 C
120 07-09-2018 09:55:00 16.2 C 96 % 15.56 C
121 07-09-2018 10:00:00 16.2 C 94 % 15.23 C
122 07-09-2018 10:05:00 16.3 C 93 % 15.17 C
123 07-09-2018 10:10:00 16.4 C 92 % 15.1 C
124 07-09-2018 10:15:00 16.7 C 90 % 15.05 C
125 07-09-2018 10:20:00 16.8 C 89 % 14.98 C
Sensor: Nr:Datum:Temp:Feuchte:Taupunkt:
Aussen-T/F 126 07-09-2018 10:25:00 17 C 87 % 14.82 C
127 07-09-2018 10:30:00 17.2 C 85 % 14.66 C
128 07-09-2018 10:35:00 17.3 C 84 % 14.57 C
129 07-09-2018 10:40:00 17.4 C 83 % 14.48 C
130 07-09-2018 10:45:00 17.6 C 82 % 14.49 C
131 07-09-2018 10:50:00 17.8 C 82 % 14.69 C
132 07-09-2018 10:55:00 17.9 C 80 % 14.4 C
133 07-09-2018 11:00:00 18.1 C 79 % 14.4 C
134 07-09-2018 11:05:00 18.1 C 76 % 13.81 C
135 07-09-2018 11:10:00 18.1 C 77 % 14.01 C
136 07-09-2018 11:15:00 18.1 C 75 % 13.6 C
137 07-09-2018 11:20:00 18.2 C 75 % 13.7 C
138 07-09-2018 11:25:00 18.3 C 74 % 13.59 C
139 07-09-2018 11:30:00 18.4 C 74 % 13.68 C
140 07-09-2018 11:35:00 18.6 C 75 % 14.08 C
141 07-09-2018 11:40:00 18.7 C 73 % 13.76 C
142 07-09-2018 11:45:00 18.8 C 74 % 14.07 C
143 07-09-2018 11:50:00 18.9 C 73 % 13.96 C
144 07-09-2018 11:55:00 19.1 C 73 % 14.15 C
145 07-09-2018 12:00:00 19.2 C 71 % 13.82 C
146 07-09-2018 12:05:00 19.3 C 71 % 13.91 C
147 07-09-2018 12:10:00 19.3 C 71 % 13.91 C
148 07-09-2018 12:15:00 19.4 C 70 % 13.79 C
149 07-09-2018 12:20:00 19.3 C 71 % 13.91 C
150 07-09-2018 12:25:00 19.3 C 71 % 13.91 C
Sensor: Nr:Datum:Temp:Feuchte:Taupunkt:
Aussen-T/F 151 07-09-2018 12:30:00 19.2 C 71 % 13.82 C
152 07-09-2018 12:35:00 19 C 71 % 13.63 C
153 07-09-2018 12:40:00 18.8 C 72 % 13.65 C
154 07-09-2018 12:45:00 18.7 C 73 % 13.76 C
155 07-09-2018 12:50:00 18.6 C 74 % 13.88 C
156 07-09-2018 12:55:00 18.4 C 74 % 13.68 C
157 07-09-2018 13:00:00 18.4 C 74 % 13.68 C
158 07-09-2018 13:05:00 18.4 C 75 % 13.89 C
159 07-09-2018 13:10:00 18.5 C 75 % 13.99 C
160 07-09-2018 13:15:00 18.6 C 75 % 14.08 C
161 07-09-2018 13:20:00 18.6 C 75 % 14.08 C
162 07-09-2018 13:25:00 18.8 C 74 % 14.07 C
163 07-09-2018 13:30:00 18.8 C 74 % 14.07 C
164 07-09-2018 13:35:00 18.7 C 74 % 13.97 C
165 07-09-2018 13:40:00 18.7 C 74 % 13.97 C
166 07-09-2018 13:45:00 18.7 C 74 % 13.97 C
167 07-09-2018 13:50:00 18.8 C 74 % 14.07 C
168 07-09-2018 13:55:00 18.9 C 75 % 14.37 C
169 07-09-2018 14:00:00 19.1 C 73 % 14.15 C
170 07-09-2018 14:05:00 19.2 C 72 % 14.03 C
171 07-09-2018 14:10:00 19.3 C 73 % 14.34 C
172 07-09-2018 14:15:00 19.4 C 72 % 14.22 C
173 07-09-2018 14:20:00 19.4 C 72 % 14.22 C
174 07-09-2018 14:25:00 19.4 C 72 % 14.22 C
175 07-09-2018 14:30:00 19.3 C 72 % 14.13 C
Sensor: Nr:Datum:Temp:Feuchte:Taupunkt:
Aussen-T/F 176 07-09-2018 14:35:00 19.3 C 72 % 14.13 C
177 07-09-2018 14:40:00 19.3 C 72 % 14.13 C
178 07-09-2018 14:45:00 19.3 C 71 % 13.91 C
179 07-09-2018 14:50:00 19.6 C 71 % 14.2 C
180 07-09-2018 14:55:00 19.7 C 70 % 14.08 C
181 07-09-2018 15:00:00 19.7 C 70 % 14.08 C
182 07-09-2018 15:05:00 19.7 C 71 % 14.3 C
183 07-09-2018 15:10:00 19.6 C 71 % 14.2 C
184 07-09-2018 15:15:00 19.5 C 71 % 14.1 C
185 07-09-2018 15:20:00 19.4 C 72 % 14.22 C
186 07-09-2018 15:25:00 19.3 C 72 % 14.13 C
187 07-09-2018 15:30:00 19.2 C 73 % 14.25 C
188 07-09-2018 15:35:00 18.9 C 77 % 14.78 C
189 07-09-2018 15:40:00 18.7 C 79 % 14.99 C
190 07-09-2018 15:45:00 18.7 C 80 % 15.18 C
191 07-09-2018 15:50:00 18.6 C 79 % 14.89 C
192 07-09-2018 15:55:00 18.4 C 79 % 14.69 C
193 07-09-2018 16:00:00 18.4 C 80 % 14.89 C
194 07-09-2018 16:05:00 18.2 C 79 % 14.5 C
195 07-09-2018 16:10:00 17.8 C 79 % 14.11 C
196 07-09-2018 16:15:00 17.4 C 80 % 13.92 C
197 07-09-2018 16:20:00 17.1 C 82 % 14 C
198 07-09-2018 16:25:00 16.5 C 83 % 13.6 C
199 07-09-2018 16:30:00 16.2 C 84 % 13.5 C
200 07-09-2018 16:35:00 16 C 85 % 13.48 C
Sensor: Nr:Datum:Temp:Feuchte:Taupunkt:
Aussen-T/F 201 07-09-2018 16:40:00 15.9 C 85 % 13.38 C
202 07-09-2018 16:45:00 15.8 C 86 % 13.46 C
203 07-09-2018 16:50:00 15.7 C 87 % 13.54 C
204 07-09-2018 16:55:00 15.6 C 88 % 13.62 C
205 07-09-2018 17:00:00 15.6 C 88 % 13.62 C
206 07-09-2018 17:05:00 15.6 C 90 % 13.97 C
207 07-09-2018 17:10:00 15.6 C 90 % 13.97 C
208 07-09-2018 17:15:00 15.5 C 89 % 13.7 C
209 07-09-2018 17:20:00 15.5 C 89 % 13.7 C
210 07-09-2018 17:25:00 15.6 C 87 % 13.45 C
211 07-09-2018 17:30:00 15.6 C 87 % 13.45 C
212 07-09-2018 17:35:00 15.7 C 88 % 13.72 C
213 07-09-2018 17:40:00 15.8 C 85 % 13.28 C
214 07-09-2018 17:45:00 16 C 85 % 13.48 C
215 07-09-2018 17:50:00 16.2 C 84 % 13.5 C
216 07-09-2018 17:55:00 16.3 C 84 % 13.59 C
217 07-09-2018 18:00:00 16.3 C 83 % 13.41 C
218 07-09-2018 18:05:00 16.3 C 82 % 13.22 C
219 07-09-2018 18:10:00 16.3 C 83 % 13.41 C
220 07-09-2018 18:15:00 16.4 C 86 % 14.05 C
221 07-09-2018 18:20:00 16.5 C 86 % 14.15 C
222 07-09-2018 18:25:00 16.6 C 87 % 14.43 C
223 07-09-2018 18:30:00 16.5 C 86 % 14.15 C
224 07-09-2018 18:35:00 16.4 C 87 % 14.23 C
225 07-09-2018 18:40:00 16.3 C 87 % 14.13 C
Sensor: Nr:Datum:Temp:Feuchte:Taupunkt:
Aussen-T/F 226 07-09-2018 18:45:00 16.3 C 87 % 14.13 C
227 07-09-2018 18:50:00 16.2 C 88 % 14.21 C
228 07-09-2018 18:55:00 16.1 C 86 % 13.76 C
229 07-09-2018 19:00:00 16 C 88 % 14.01 C
230 07-09-2018 19:05:00 16 C 88 % 14.01 C
231 07-09-2018 19:10:00 16.2 C 89 % 14.39 C
232 07-09-2018 19:15:00 16.4 C 90 % 14.76 C
233 07-09-2018 19:20:00 16.6 C 87 % 14.43 C
234 07-09-2018 19:25:00 16.5 C 79 % 12.85 C
235 07-09-2018 19:30:00 16.4 C 75 % 11.96 C
236 07-09-2018 19:35:00 16.4 C 78 % 12.56 C
237 07-09-2018 19:40:00 16.3 C 78 % 12.46 C
238 07-09-2018 19:45:00 15.9 C 78 % 12.07 C
239 07-09-2018 19:50:00 15.6 C 79 % 11.97 C
240 07-09-2018 19:55:00 15.3 C 80 % 11.87 C
241 07-09-2018 20:00:00 15.1 C 81 % 11.87 C
242 07-09-2018 20:05:00 14.8 C 81 % 11.57 C
243 07-09-2018 20:10:00 14.4 C 81 % 11.18 C
244 07-09-2018 20:15:00 14.2 C 82 % 11.17 C
245 07-09-2018 20:20:00 13.9 C 82 % 10.88 C
246 07-09-2018 20:25:00 13.8 C 84 % 11.15 C
247 07-09-2018 20:30:00 13.6 C 84 % 10.95 C
248 07-09-2018 20:35:00 13.4 C 84 % 10.75 C
249 07-09-2018 20:40:00 13.2 C 84 % 10.56 C
250 07-09-2018 20:45:00 13.2 C 85 % 10.74 C
Sensor: Nr:Datum:Temp:Feuchte:Taupunkt:
Aussen-T/F 251 07-09-2018 20:50:00 13.1 C 84 % 10.46 C
252 07-09-2018 20:55:00 12.9 C 84 % 10.26 C
253 07-09-2018 21:00:00 12.8 C 84 % 10.17 C
254 07-09-2018 21:05:00 12.8 C 84 % 10.17 C
255 07-09-2018 21:10:00 12.7 C 84 % 10.07 C
256 07-09-2018 21:15:00 12.7 C 84 % 10.07 C
257 07-09-2018 21:20:00 12.7 C 84 % 10.07 C
258 07-09-2018 21:25:00 12.7 C 84 % 10.07 C
259 07-09-2018 21:30:00 12.6 C 85 % 10.15 C
260 07-09-2018 21:35:00 12.6 C 84 % 9.97 C
261 07-09-2018 21:40:00 12.4 C 85 % 9.95 C
262 07-09-2018 21:45:00 12.4 C 85 % 9.95 C
263 07-09-2018 21:50:00 12.3 C 86 % 10.03 C
264 07-09-2018 21:55:00 12.3 C 86 % 10.03 C
265 07-09-2018 22:00:00 12.2 C 86 % 9.93 C
266 07-09-2018 22:05:00 12.2 C 86 % 9.93 C
267 07-09-2018 22:10:00 12.1 C 86 % 9.83 C
268 07-09-2018 22:15:00 12 C 86 % 9.73 C
269 07-09-2018 22:20:00 11.9 C 87 % 9.81 C
270 07-09-2018 22:25:00 11.8 C 87 % 9.71 C
271 07-09-2018 22:30:00 11.8 C 87 % 9.71 C
272 07-09-2018 22:35:00 11.7 C 87 % 9.61 C
273 07-09-2018 22:40:00 11.7 C 87 % 9.61 C
274 07-09-2018 22:45:00 11.6 C 88 % 9.68 C
275 07-09-2018 22:50:00 11.5 C 87 % 9.41 C
Sensor: Nr:Datum:Temp:Feuchte:Taupunkt:
Aussen-T/F 276 07-09-2018 22:55:00 11.4 C 87 % 9.32 C
277 07-09-2018 23:00:00 11.3 C 88 % 9.39 C
278 07-09-2018 23:05:00 11.3 C 88 % 9.39 C
279 07-09-2018 23:10:00 11.2 C 88 % 9.29 C
280 07-09-2018 23:15:00 11.2 C 88 % 9.29 C
281 07-09-2018 23:20:00 11.1 C 88 % 9.19 C
282 07-09-2018 23:25:00 11 C 88 % 9.09 C
283 07-09-2018 23:30:00 10.9 C 88 % 8.99 C
284 07-09-2018 23:35:00 10.8 C 88 % 8.89 C
285 07-09-2018 23:40:00 10.7 C 88 % 8.8 C
286 07-09-2018 23:45:00 10.6 C 88 % 8.7 C
287 07-09-2018 23:50:00 10.4 C 88 % 8.5 C
288 07-09-2018 23:55:00 10.3 C 89 % 8.57 C

Legende:
   Min
   Max


Maximal/Minimal-Werte vom 07.09.2018 - 07.09.2018

Sensor Min Max Avg
Temp
(Aussen-T/F)
10.3 °C
07-09-2018  23:55:00
19.7 °C
07-09-2018  14:55:00
15.73 °C
Feuchte
(Aussen-T/F)
70 %
07-09-2018  12:15:00
96 %
07-09-2018  03:30:00
86.95 %
Taupunkt
(Aussen-T/F)
8.5 C
07-09-2018  23:50:00
15.56 C
07-09-2018  09:55:00
13.43 C

Die Daten stammen von einer Davis Vantage Pro 2 Wetter-Station und werden unter Linux mit der Software wview2wettercgi und aufbereitet. Alle Angaben erfolgen ohne Gewähr für ihre Vollständigkeit oder Richtigkeit.
Kontakt: Rainer Krienke krienke@uni-koblenz.de . Meine Webseiten an der Uni Koblenz oder privat.
Version: $Revision: 0.78 $